createdAt,value
2023-02-04T00:01:48.696Z,3.89
2023-02-04T00:04:15.535Z,3.75
2023-02-04T00:06:42.156Z,3.68
2023-02-04T00:09:08.712Z,3.66
2023-02-04T00:11:35.184Z,3.62
2023-02-04T00:14:01.550Z,3.64
2023-02-04T00:16:28.036Z,3.61
2023-02-04T00:18:54.753Z,3.60
2023-02-04T00:21:21.487Z,3.55
2023-02-04T00:23:48.630Z,3.53
2023-02-04T00:26:15.057Z,3.49
2023-02-04T00:28:41.962Z,3.41
2023-02-04T00:31:08.541Z,3.24
2023-02-04T00:33:35.030Z,3.11
2023-02-04T00:36:01.969Z,2.95
2023-02-04T00:38:28.544Z,2.86
2023-02-04T00:40:55.196Z,2.67
2023-02-04T00:43:21.581Z,2.56
2023-02-04T00:45:48.029Z,2.46
2023-02-04T00:48:14.878Z,2.47
2023-02-04T00:50:41.387Z,2.41
2023-02-04T00:53:08.043Z,2.37
2023-02-04T00:55:34.860Z,2.33
2023-02-04T00:58:01.333Z,2.30
2023-02-04T01:00:27.966Z,2.33
2023-02-04T01:02:54.667Z,2.36
2023-02-04T01:05:21.259Z,2.44
2023-02-04T01:07:48.120Z,2.44
2023-02-04T01:10:16.123Z,2.49
2023-02-04T01:12:42.792Z,2.57
2023-02-04T01:15:10.227Z,2.56
2023-02-04T01:17:37.280Z,2.52
2023-02-04T01:20:03.930Z,2.57
2023-02-04T01:22:31.496Z,2.51
2023-02-04T01:24:57.954Z,2.62
2023-02-04T01:27:24.382Z,2.60
2023-02-04T01:29:50.785Z,2.59
2023-02-04T01:32:17.246Z,2.61
2023-02-04T01:34:43.690Z,2.51
2023-02-04T01:37:10.131Z,2.51
2023-02-04T01:39:37.007Z,2.50
2023-02-04T01:42:03.925Z,2.49
2023-02-04T01:44:31.120Z,2.49
2023-02-04T01:46:57.747Z,2.48
2023-02-04T01:49:24.684Z,2.47
2023-02-04T01:51:51.155Z,2.41
2023-02-04T01:54:18.064Z,2.44
2023-02-04T01:56:47.255Z,2.42
2023-02-04T01:59:15.266Z,2.33
2023-02-04T02:01:47.201Z,2.24
2023-02-04T02:04:17.264Z,2.28
2023-02-04T02:06:49.726Z,2.20
2023-02-04T02:09:16.423Z,2.17
2023-02-04T02:11:43.327Z,2.12
2023-02-04T02:14:10.425Z,2.16
2023-02-04T02:16:37.487Z,2.17
2023-02-04T02:19:04.432Z,2.16
2023-02-04T02:21:41.030Z,2.10
2023-02-04T02:24:30.941Z,2.00
2023-02-04T02:27:00.538Z,2.01
2023-02-04T02:29:27.681Z,1.97
2023-02-04T02:31:57.435Z,1.99
2023-02-04T02:34:25.655Z,2.05
2023-02-04T02:36:52.868Z,2.05
2023-02-04T02:39:20.600Z,2.05
2023-02-04T02:41:48.016Z,2.07
2023-02-04T02:44:16.558Z,2.00
2023-02-04T02:46:43.353Z,1.93
2023-02-04T02:49:15.956Z,1.81
2023-02-04T02:51:42.964Z,1.76
2023-02-04T02:54:29.226Z,1.69
2023-02-04T02:56:56.645Z,1.60
2023-02-04T02:59:23.819Z,1.57
2023-02-04T03:01:54.152Z,1.63
2023-02-04T03:04:22.017Z,1.64
2023-02-04T03:06:49.498Z,1.63
2023-02-04T03:09:16.090Z,1.62
2023-02-04T03:11:42.580Z,1.65
2023-02-04T03:14:09.527Z,1.68
2023-02-04T03:16:37.968Z,1.69
2023-02-04T03:19:05.826Z,1.71
2023-02-04T03:21:32.825Z,1.73
2023-02-04T03:23:59.708Z,1.80
2023-02-04T03:26:26.699Z,1.87
2023-02-04T03:28:54.481Z,1.87
2023-02-04T03:31:21.259Z,1.92
2023-02-04T03:33:48.328Z,1.91
2023-02-04T03:36:14.866Z,1.97
2023-02-04T03:38:41.435Z,2.01
2023-02-04T03:41:08.166Z,1.94
2023-02-04T03:43:34.754Z,1.93
2023-02-04T03:46:01.373Z,1.78
2023-02-04T03:48:28.068Z,1.66
2023-02-04T03:50:54.544Z,1.63
2023-02-04T03:53:22.116Z,1.47
2023-02-04T03:55:48.637Z,1.42
2023-02-04T03:58:15.244Z,1.32
2023-02-04T04:00:41.868Z,1.20
2023-02-04T04:03:08.418Z,1.14
2023-02-04T04:05:35.024Z,1.02
2023-02-04T04:08:01.739Z,0.88
2023-02-04T04:10:29.488Z,0.82
2023-02-04T04:12:56.276Z,0.81
2023-02-04T04:15:22.966Z,0.83
2023-02-04T04:17:49.540Z,0.87
2023-02-04T04:20:16.296Z,0.92
2023-02-04T04:22:42.714Z,1.00
2023-02-04T04:25:09.404Z,0.99
2023-02-04T04:27:35.797Z,1.01
2023-02-04T04:30:03.076Z,1.06
2023-02-04T04:32:29.576Z,1.03
2023-02-04T04:34:56.159Z,1.01
2023-02-04T04:37:22.658Z,1.02
2023-02-04T04:39:49.069Z,1.01
2023-02-04T04:42:15.533Z,1.06
2023-02-04T04:44:41.946Z,1.11
2023-02-04T04:47:08.442Z,1.13
2023-02-04T04:49:34.890Z,1.15
2023-02-04T04:52:01.376Z,1.18
2023-02-04T04:54:27.924Z,1.22
2023-02-04T04:56:54.620Z,1.29
2023-02-04T04:59:21.057Z,1.37
2023-02-04T05:01:48.060Z,1.43
2023-02-04T05:04:14.627Z,1.48
2023-02-04T05:06:41.127Z,1.43
2023-02-04T05:09:09.630Z,1.38
2023-02-04T05:11:36.171Z,1.33
2023-02-04T05:14:02.627Z,1.37
2023-02-04T05:16:29.256Z,1.30
2023-02-04T05:18:55.706Z,1.30
2023-02-04T05:21:22.175Z,1.27
2023-02-04T05:23:48.589Z,1.20
2023-02-04T05:26:22.184Z,1.15
2023-02-04T05:28:55.914Z,1.05
2023-02-04T05:31:22.483Z,0.99
2023-02-04T05:33:49.058Z,0.90
2023-02-04T05:36:15.477Z,0.85
2023-02-04T05:38:41.871Z,0.81
2023-02-04T05:41:08.292Z,0.82
2023-02-04T05:43:35.255Z,0.81
2023-02-04T05:46:02.565Z,0.79
2023-02-04T05:48:29.083Z,0.80
2023-02-04T05:50:55.534Z,0.75
2023-02-04T05:53:22.068Z,0.66
2023-02-04T05:55:48.520Z,0.68
2023-02-04T05:58:14.950Z,0.61
2023-02-04T06:00:41.404Z,0.57
2023-02-04T06:03:07.951Z,0.55
2023-02-04T06:05:34.424Z,0.51
2023-02-04T06:08:00.928Z,0.47
2023-02-04T06:10:27.411Z,0.45
2023-02-04T06:12:54.184Z,0.42
2023-02-04T06:15:20.804Z,0.38
2023-02-04T06:17:47.658Z,0.36
2023-02-04T06:20:15.120Z,0.32
2023-02-04T06:22:41.509Z,0.22
2023-02-04T06:25:08.290Z,0.15
2023-02-04T06:27:35.051Z,0.11
2023-02-04T06:30:01.534Z,0.01
2023-02-04T06:32:27.960Z,-0.02
2023-02-04T06:34:54.370Z,-0.05
2023-02-04T06:37:21.463Z,-0.12
2023-02-04T06:39:48.943Z,-0.08
2023-02-04T06:42:15.433Z,-0.13
2023-02-04T06:44:41.888Z,-0.13
2023-02-04T06:47:08.472Z,-0.15
2023-02-04T06:49:34.906Z,-0.16
2023-02-04T06:52:01.349Z,-0.18
2023-02-04T06:54:28.278Z,-0.21
2023-02-04T06:56:54.844Z,-0.19
2023-02-04T06:59:21.248Z,-0.16
2023-02-04T07:01:47.742Z,-0.15
2023-02-04T07:04:14.303Z,-0.13
2023-02-04T07:06:40.778Z,0.03
2023-02-04T07:09:07.245Z,0.33
2023-02-04T07:11:33.816Z,0.56
2023-02-04T07:14:00.606Z,0.71
2023-02-04T07:16:27.142Z,1.17
2023-02-04T07:18:53.621Z,1.77
2023-02-04T07:21:20.139Z,2.21
2023-02-04T07:23:46.573Z,2.71
2023-02-04T07:26:13.005Z,2.82
2023-02-04T07:28:41.166Z,3.27
2023-02-04T07:31:07.816Z,3.52
2023-02-04T07:33:34.272Z,3.42
2023-02-04T07:36:00.726Z,3.36
2023-02-04T07:38:27.668Z,3.57
2023-02-04T07:40:54.252Z,3.69
2023-02-04T07:43:20.757Z,4.55
2023-02-04T07:45:47.422Z,4.67
2023-02-04T07:48:14.076Z,5.49
2023-02-04T07:50:40.748Z,5.81
2023-02-04T07:53:07.411Z,6.85
2023-02-04T07:55:34.296Z,7.29
2023-02-04T07:58:00.827Z,8.38
2023-02-04T08:00:27.354Z,7.99
2023-02-04T08:02:54.053Z,8.08
2023-02-04T08:05:20.952Z,6.87
2023-02-04T08:07:47.614Z,5.72
2023-02-04T08:10:14.193Z,5.21
2023-02-04T08:12:41.333Z,4.91
2023-02-04T08:15:08.929Z,4.14
2023-02-04T08:17:35.931Z,3.80
2023-02-04T08:20:03.221Z,3.54
2023-02-04T08:22:29.885Z,3.44
2023-02-04T08:24:56.584Z,3.33
2023-02-04T08:27:23.347Z,3.27
2023-02-04T08:29:49.928Z,3.89
2023-02-04T08:32:16.661Z,4.57
2023-02-04T08:34:44.116Z,4.37
2023-02-04T08:37:10.803Z,3.95
2023-02-04T08:39:38.429Z,3.31
2023-02-04T08:42:04.903Z,3.35
2023-02-04T08:44:31.359Z,3.11
2023-02-04T08:46:57.993Z,3.15
2023-02-04T08:49:24.560Z,2.97
2023-02-04T08:51:50.997Z,3.10
2023-02-04T08:54:17.442Z,3.14
2023-02-04T08:56:44.213Z,3.35
2023-02-04T08:59:10.659Z,3.33
2023-02-04T09:01:37.137Z,3.37
2023-02-04T09:04:03.658Z,3.46
2023-02-04T09:06:30.166Z,3.60
2023-02-04T09:08:56.802Z,3.67
2023-02-04T09:11:23.400Z,4.21
2023-02-04T09:13:50.430Z,4.28
2023-02-04T09:16:18.537Z,4.44
2023-02-04T09:18:45.160Z,4.59
2023-02-04T09:21:11.573Z,4.62
2023-02-04T09:23:38.047Z,4.64
2023-02-04T09:26:06.322Z,4.56
2023-02-04T09:28:33.118Z,4.67
2023-02-04T09:31:00.601Z,4.69
2023-02-04T09:33:27.411Z,4.92
2023-02-04T09:35:53.921Z,4.61
2023-02-04T09:38:22.167Z,4.22
2023-02-04T09:40:54.819Z,4.33
2023-02-04T09:43:26.277Z,4.33
2023-02-04T09:45:53.897Z,4.16
2023-02-04T09:48:21.739Z,4.42
2023-02-04T09:50:49.157Z,4.83
2023-02-04T09:53:18.463Z,4.81
2023-02-04T09:55:45.763Z,5.20
2023-02-04T09:58:21.612Z,4.83
2023-02-04T10:00:52.931Z,4.89
2023-02-04T10:03:22.225Z,5.54
2023-02-04T10:05:49.927Z,6.04
2023-02-04T10:08:18.886Z,5.99
2023-02-04T10:10:47.833Z,5.76
2023-02-04T10:13:19.994Z,5.58
2023-02-04T10:15:47.939Z,5.37
2023-02-04T10:18:27.546Z,5.51
2023-02-04T10:21:16.823Z,5.49
2023-02-04T10:23:45.526Z,5.48
2023-02-04T10:26:12.668Z,5.21
2023-02-04T10:28:42.470Z,5.17
2023-02-04T10:31:30.769Z,5.21
2023-02-04T10:34:04.427Z,5.00
2023-02-04T10:36:30.983Z,4.99
2023-02-04T10:39:16.991Z,4.96
2023-02-04T10:42:01.641Z,4.80
2023-02-04T10:44:30.239Z,4.91
2023-02-04T10:46:59.836Z,5.09
2023-02-04T10:49:26.349Z,5.14
2023-02-04T10:51:53.435Z,5.04
2023-02-04T10:54:30.639Z,5.31
2023-02-04T10:57:11.608Z,5.84
2023-02-04T10:59:38.168Z,6.79
2023-02-04T11:02:21.515Z,7.10
2023-02-04T11:04:48.453Z,7.54
2023-02-04T11:07:14.888Z,7.43
2023-02-04T11:09:42.025Z,7.30
2023-02-04T11:12:20.728Z,6.52
2023-02-04T11:14:57.493Z,6.69
2023-02-04T11:17:31.500Z,8.42
2023-02-04T11:19:58.115Z,8.77
2023-02-04T11:22:37.341Z,7.84
2023-02-04T11:25:03.892Z,9.52
2023-02-04T11:27:40.361Z,10.93
2023-02-04T11:30:20.529Z,11.28
2023-02-04T11:32:56.923Z,10.30
2023-02-04T11:35:26.752Z,10.38
2023-02-04T11:37:54.617Z,10.23
2023-02-04T11:40:23.782Z,11.16
2023-02-04T11:42:50.320Z,10.49
2023-02-04T11:45:32.766Z,9.01
2023-02-04T11:48:02.163Z,8.36
2023-02-04T11:50:31.967Z,7.65
2023-02-04T11:52:59.764Z,7.31
2023-02-04T11:55:26.428Z,7.69
2023-02-04T11:57:55.076Z,9.44
2023-02-04T12:00:24.646Z,10.65
2023-02-04T12:02:56.854Z,10.96
2023-02-04T12:05:35.868Z,11.19
2023-02-04T12:08:11.941Z,9.38
2023-02-04T12:10:38.531Z,8.19
2023-02-04T12:13:13.366Z,7.92
2023-02-04T12:15:40.547Z,7.96
2023-02-04T12:18:16.613Z,8.48
2023-02-04T12:20:43.033Z,8.01
2023-02-04T12:23:09.521Z,6.87
2023-02-04T12:25:36.812Z,6.29
2023-02-04T12:28:03.419Z,6.04
2023-02-04T12:30:29.839Z,5.76
2023-02-04T12:32:56.276Z,6.06
2023-02-04T12:35:22.718Z,6.84
2023-02-04T12:37:49.266Z,7.66
2023-02-04T12:40:17.472Z,8.29
2023-02-04T12:42:44.253Z,8.81
2023-02-04T12:45:11.678Z,9.31
2023-02-04T12:47:38.575Z,10.08
2023-02-04T12:50:06.313Z,10.04
2023-02-04T12:52:32.810Z,10.52
2023-02-04T12:55:04.869Z,10.24
2023-02-04T12:57:32.244Z,10.40
2023-02-04T13:00:00.325Z,10.54
2023-02-04T13:02:30.325Z,9.68
2023-02-04T13:04:56.975Z,8.55
2023-02-04T13:07:23.420Z,8.10
2023-02-04T13:09:50.511Z,8.59
2023-02-04T13:12:16.999Z,9.77
2023-02-04T13:14:43.832Z,10.24
2023-02-04T13:17:10.507Z,10.20
2023-02-04T13:19:37.262Z,10.38
2023-02-04T13:22:06.751Z,9.66
2023-02-04T13:24:33.729Z,9.52
2023-02-04T13:27:00.203Z,8.98
2023-02-04T13:29:27.105Z,9.18
2023-02-04T13:31:53.595Z,8.70
2023-02-04T13:34:20.121Z,8.02
2023-02-04T13:36:46.672Z,7.51
2023-02-04T13:39:13.130Z,8.11
2023-02-04T13:41:39.525Z,9.06
2023-02-04T13:44:05.918Z,9.61
2023-02-04T13:46:32.392Z,8.92
2023-02-04T13:48:58.936Z,9.56
2023-02-04T13:51:25.442Z,9.45
2023-02-04T13:53:52.022Z,9.09
2023-02-04T13:56:18.468Z,7.84
2023-02-04T13:58:45.541Z,7.54
2023-02-04T14:01:13.146Z,7.64
2023-02-04T14:03:40.097Z,7.99
2023-02-04T14:06:06.764Z,8.28
2023-02-04T14:08:33.219Z,8.56
2023-02-04T14:10:59.620Z,8.56
2023-02-04T14:13:26.356Z,9.26
2023-02-04T14:15:53.118Z,9.39
2023-02-04T14:18:19.644Z,9.11
2023-02-04T14:20:46.219Z,8.84
2023-02-04T14:23:12.921Z,8.66
2023-02-04T14:25:39.416Z,8.60
2023-02-04T14:28:06.093Z,8.10
2023-02-04T14:30:33.212Z,7.60
2023-02-04T14:33:01.425Z,7.16
2023-02-04T14:35:28.066Z,6.92
2023-02-04T14:37:54.664Z,6.78
2023-02-04T14:40:22.356Z,6.60
2023-02-04T14:42:48.925Z,6.76
2023-02-04T14:45:15.943Z,7.09
2023-02-04T14:47:42.648Z,7.42
2023-02-04T14:50:12.497Z,7.16
2023-02-04T14:52:39.013Z,6.96
2023-02-04T14:55:05.713Z,6.92
2023-02-04T14:57:32.133Z,6.69
2023-02-04T14:59:58.575Z,6.48
2023-02-04T15:02:25.740Z,6.36
2023-02-04T15:04:52.408Z,6.42
2023-02-04T15:07:18.856Z,6.39
2023-02-04T15:09:45.306Z,6.28
2023-02-04T15:12:11.772Z,6.43
2023-02-04T15:14:38.117Z,6.42
2023-02-04T15:17:04.645Z,6.26
2023-02-04T15:19:31.094Z,6.14
2023-02-04T15:21:57.512Z,5.83
2023-02-04T15:24:26.178Z,5.69
2023-02-04T15:26:52.541Z,5.53
2023-02-04T15:29:19.177Z,5.38
2023-02-04T15:31:45.738Z,5.14
2023-02-04T15:34:12.276Z,5.04
2023-02-04T15:36:38.738Z,4.83
2023-02-04T15:39:05.340Z,4.81
2023-02-04T15:41:31.783Z,4.62
2023-02-04T15:43:58.166Z,4.51
2023-02-04T15:46:24.625Z,4.50
2023-02-04T15:48:51.277Z,4.37
2023-02-04T15:51:17.709Z,4.07
2023-02-04T15:53:44.335Z,4.02
2023-02-04T15:56:10.851Z,4.02
2023-02-04T15:58:38.019Z,3.96
2023-02-04T16:01:04.618Z,3.78
2023-02-04T16:03:31.223Z,3.42
2023-02-04T16:05:57.685Z,3.29
2023-02-04T16:08:24.259Z,3.12
2023-02-04T16:10:51.245Z,3.04
2023-02-04T16:13:17.617Z,2.84
2023-02-04T16:15:44.090Z,2.69
2023-02-04T16:18:10.532Z,2.69
2023-02-04T16:20:36.950Z,2.47
2023-02-04T16:23:04.235Z,2.35
2023-02-04T16:25:31.060Z,2.35
2023-02-04T16:27:57.580Z,2.21
2023-02-04T16:30:23.998Z,2.21
2023-02-04T16:32:50.394Z,2.03
2023-02-04T16:35:16.980Z,2.00
2023-02-04T16:37:43.422Z,1.98
2023-02-04T16:40:11.196Z,1.91
2023-02-04T16:42:37.697Z,1.80
2023-02-04T16:45:04.433Z,1.71
2023-02-04T16:47:30.869Z,1.73
2023-02-04T16:50:00.855Z,1.57
2023-02-04T16:52:28.504Z,1.57
2023-02-04T16:54:55.171Z,1.46
2023-02-04T16:57:21.784Z,1.42
2023-02-04T16:59:48.211Z,1.40
2023-02-04T17:02:14.640Z,1.33
2023-02-04T17:04:41.580Z,1.23
2023-02-04T17:07:08.087Z,1.16
2023-02-04T17:09:34.589Z,1.13
2023-02-04T17:12:01.041Z,1.06
2023-02-04T17:14:27.463Z,1.00
2023-02-04T17:16:53.922Z,0.99
2023-02-04T17:19:21.321Z,0.91
2023-02-04T17:21:48.746Z,0.92
2023-02-04T17:24:15.325Z,0.99
2023-02-04T17:26:41.739Z,0.96
2023-02-04T17:29:10.620Z,0.93
2023-02-04T17:31:37.653Z,0.86
2023-02-04T17:34:04.706Z,0.77
2023-02-04T17:36:31.551Z,0.72
2023-02-04T17:38:58.093Z,0.72
2023-02-04T17:41:24.490Z,0.70
2023-02-04T17:43:50.958Z,0.68
2023-02-04T17:46:17.382Z,0.58
2023-02-04T17:48:43.825Z,0.56
2023-02-04T17:51:10.346Z,0.61
2023-02-04T17:53:38.742Z,0.58
2023-02-04T17:56:09.942Z,0.52
2023-02-04T17:58:37.664Z,0.60
2023-02-04T18:01:13.901Z,0.56
2023-02-04T18:03:42.721Z,0.54
2023-02-04T18:06:19.905Z,0.44
2023-02-04T18:08:46.862Z,0.43
2023-02-04T18:11:18.774Z,0.37
2023-02-04T18:13:45.440Z,0.46
2023-02-04T18:16:32.133Z,0.44
2023-02-04T18:19:21.337Z,0.33
2023-02-04T18:21:49.227Z,0.28
2023-02-04T18:24:30.230Z,0.20
2023-02-04T18:27:09.242Z,0.17
2023-02-04T18:29:37.903Z,0.16
2023-02-04T18:32:20.616Z,0.16
2023-02-04T18:34:49.006Z,0.11
2023-02-04T18:37:48.575Z,0.16
2023-02-04T18:40:26.604Z,0.25
2023-02-04T18:43:25.254Z,0.28
2023-02-04T18:45:52.621Z,0.29
2023-02-04T18:48:19.042Z,0.29
2023-02-04T18:50:46.676Z,0.30
2023-02-04T18:53:13.512Z,0.24
2023-02-04T18:55:42.224Z,0.29
2023-02-04T18:58:46.347Z,0.25
2023-02-04T19:01:12.944Z,0.20
2023-02-04T19:03:55.649Z,0.05
2023-02-04T19:06:40.189Z,0.01
2023-02-04T19:09:13.325Z,-0.01
2023-02-04T19:11:45.095Z,-0.16
2023-02-04T19:14:33.045Z,-0.12
2023-02-04T19:17:26.705Z,-0.17
2023-02-04T19:20:02.078Z,-0.14
2023-02-04T19:22:46.127Z,-0.01
2023-02-04T19:25:28.447Z,0.04
2023-02-04T19:27:57.354Z,0.07
2023-02-04T19:30:26.678Z,0.07
2023-02-04T19:32:56.936Z,0.04
2023-02-04T19:35:26.420Z,0.14
2023-02-04T19:37:58.032Z,0.15
2023-02-04T19:40:37.367Z,0.21
2023-02-04T19:43:27.057Z,0.29
2023-02-04T19:45:53.839Z,0.29
2023-02-04T19:48:25.628Z,0.37
2023-02-04T19:50:53.063Z,0.40
2023-02-04T19:53:27.653Z,0.53
2023-02-04T19:55:54.548Z,0.48
2023-02-04T19:58:28.858Z,0.48
2023-02-04T20:01:08.210Z,0.50
2023-02-04T20:03:45.548Z,0.48
2023-02-04T20:06:27.436Z,0.44
2023-02-04T20:09:20.265Z,0.32
2023-02-04T20:11:59.800Z,0.23
2023-02-04T20:14:41.057Z,0.18
2023-02-04T20:17:15.224Z,0.08
2023-02-04T20:19:42.489Z,-0.02
2023-02-04T20:22:17.782Z,-0.11
2023-02-04T20:24:55.818Z,-0.21
2023-02-04T20:27:35.798Z,-0.29
2023-02-04T20:30:08.966Z,-0.40
2023-02-04T20:32:41.367Z,-0.46
2023-02-04T20:35:14.129Z,-0.61
2023-02-04T20:37:41.854Z,-0.61
2023-02-04T20:40:20.318Z,-0.68
2023-02-04T20:42:50.071Z,-0.68
2023-02-04T20:45:25.526Z,-0.59
2023-02-04T20:47:56.495Z,-0.63
2023-02-04T20:50:41.150Z,-0.62
2023-02-04T20:53:17.240Z,-0.58
2023-02-04T20:56:03.710Z,-0.53
2023-02-04T20:58:36.777Z,-0.60
2023-02-04T21:01:03.534Z,-0.56
2023-02-04T21:03:35.747Z,-0.53
2023-02-04T21:06:04.386Z,-0.53
2023-02-04T21:08:38.234Z,-0.49
2023-02-04T21:11:05.064Z,-0.53
2023-02-04T21:13:32.062Z,-0.51
2023-02-04T21:15:58.864Z,-0.60
2023-02-04T21:18:25.549Z,-0.61
2023-02-04T21:20:52.709Z,-0.63
2023-02-04T21:23:19.887Z,-0.77
2023-02-04T21:25:46.346Z,-0.80
2023-02-04T21:28:13.092Z,-0.85
2023-02-04T21:30:39.599Z,-0.99
2023-02-04T21:33:06.003Z,-1.09
2023-02-04T21:35:32.725Z,-1.17
2023-02-04T21:37:59.830Z,-1.29
2023-02-04T21:40:26.688Z,-1.38
2023-02-04T21:42:53.567Z,-1.34
2023-02-04T21:45:21.785Z,-1.48
2023-02-04T21:47:49.353Z,-1.50
2023-02-04T21:50:17.196Z,-1.56
2023-02-04T21:52:43.997Z,-1.57
2023-02-04T21:55:11.338Z,-1.69
2023-02-04T21:57:38.102Z,-1.77
2023-02-04T22:00:06.713Z,-1.84
2023-02-04T22:02:33.327Z,-1.81
2023-02-04T22:04:59.828Z,-1.76
2023-02-04T22:07:26.409Z,-1.86
2023-02-04T22:09:52.822Z,-1.80
2023-02-04T22:12:19.738Z,-1.79
2023-02-04T22:14:46.150Z,-1.79
2023-02-04T22:17:12.510Z,-1.75
2023-02-04T22:19:38.927Z,-1.75
2023-02-04T22:22:05.293Z,-1.75
2023-02-04T22:24:32.077Z,-1.79
2023-02-04T22:26:59.324Z,-1.78
2023-02-04T22:29:29.845Z,-1.74
2023-02-04T22:31:56.423Z,-1.77
2023-02-04T22:34:22.929Z,-1.76
2023-02-04T22:36:49.514Z,-1.74
2023-02-04T22:39:15.861Z,-1.81
2023-02-04T22:41:42.259Z,-1.81
2023-02-04T22:44:08.780Z,-1.85
2023-02-04T22:46:35.304Z,-1.92
2023-02-04T22:49:01.934Z,-2.05
2023-02-04T22:51:28.581Z,-2.06
2023-02-04T22:53:55.074Z,-2.09
2023-02-04T22:56:21.541Z,-2.10
2023-02-04T22:58:47.969Z,-2.25
2023-02-04T23:01:14.621Z,-2.21
2023-02-04T23:03:41.124Z,-2.36
2023-02-04T23:06:07.847Z,-2.30
2023-02-04T23:08:34.482Z,-2.33
2023-02-04T23:11:01.416Z,-2.30
2023-02-04T23:13:28.062Z,-2.33
2023-02-04T23:15:54.878Z,-2.37
2023-02-04T23:18:21.458Z,-2.54
2023-02-04T23:20:48.012Z,-2.54
2023-02-04T23:23:17.473Z,-2.62
2023-02-04T23:25:45.560Z,-2.73
2023-02-04T23:28:12.591Z,-2.65
2023-02-04T23:30:39.869Z,-2.69
2023-02-04T23:33:06.457Z,-2.75
2023-02-04T23:35:33.521Z,-2.69
2023-02-04T23:38:01.784Z,-2.61
2023-02-04T23:40:28.977Z,-2.69
2023-02-04T23:42:55.399Z,-2.65
2023-02-04T23:45:22.188Z,-2.72
2023-02-04T23:47:48.715Z,-2.81
2023-02-04T23:50:16.022Z,-2.78
2023-02-04T23:52:43.000Z,-2.87
2023-02-04T23:55:09.964Z,-2.96
2023-02-04T23:57:36.386Z,-3.06
